This is the latest recevied weather packets stored in our database for station/object OK1VCF-8. If no packets are shown the sender has not sent any weather packets the latest 10 day(s).
| Time | Temp. | Humidity | Pressure | Rain* | Wind** | Luminosity | Snow |
|---|---|---|---|---|---|---|---|
| 1777530946 | 5.56° C | 48% | 1033.6 hPa | - | - | - | - |
| 1777530483 | 5.56° C | 50% | 1033.6 hPa | - | - | - | - |
| 1777530022 | 5.56° C | 51% | 1033.4 hPa | - | - | - | - |
| 1777529389 | 5.56° C | 54% | 1033.4 hPa | - | - | - | - |
| 1777528934 | 5.56° C | 56% | 1033.4 hPa | - | - | - | - |
| 1777528477 | 4.44° C | 58% | 1033.4 hPa | - | - | - | - |
| 1777528035 | 4.44° C | 57% | 1033.2 hPa | - | - | - | - |
| 1777527594 | 3.33° C | 60% | 1033.3 hPa | - | - | - | - |
| 1777527153 | 3.33° C | 59% | 1033.2 hPa | - | - | - | - |
| 1777526715 | 3.33° C | 60% | 1033.1 hPa | - | - | - | - |
| 1777526275 | 3.33° C | 60% | 1033 hPa | - | - | - | - |
| 1777525838 | 2.78° C | 62% | 1033.2 hPa | - | - | - | - |
| 1777525399 | 2.22° C | 64% | 1033.2 hPa | - | - | - | - |
| 1777524958 | 2.22° C | 64% | 1033.4 hPa | - | - | - | - |
| 1777524520 | 1.11° C | 65% | 1033.3 hPa | - | - | - | - |
| 1777524082 | 1.67° C | 64% | 1033.2 hPa | - | - | - | - |
| 1777523642 | 1.67° C | 64% | 1033.2 hPa | - | - | - | - |
| 1777523203 | 2.22° C | 63% | 1033 hPa | - | - | - | - |
| 1777522598 | 4.44° C | 54% | 1032.8 hPa | - | - | - | - |
| 1777522162 | 3.89° C | 57% | 1032.7 hPa | - | - | - | - |
| 1777521724 | 2.22° C | 62% | 1032.6 hPa | - | - | - | - |
| 1777521284 | 0.56° C | 70% | 1032.6 hPa | - | - | - | - |
| 1777520846 | -1.11° C | 72% | 1032.5 hPa | - | - | - | - |
| 1777520406 | -1.11° C | 72% | 1032.4 hPa | - | - | - | - |
| 1777519969 | 0° C | 69% | 1032.6 hPa | - | - | - | - |
* Rain since midnight (hover to see other rain measurements)
** Current wind speed in m/s (hover to see current wind gust speed)